Time,TemperatureF,DewpointF,PressureIn,WindDirection,WindDirectionDegrees,WindSpeedMPH,WindSpeedGustMPH,Humidity,HourlyPrecipIn,Conditions,Clouds,dailyrainin,SoftwareType,DateUTC
2013-02-20 00:01:00,34.7,32.1,29.85,East,90,0.0,0.0,90,0.00,-RA,SKC,0.06,WeatherDisplay:10.37,2013-02-19 23:01:00,
2013-02-20 00:06:00,34.7,32.1,29.85,East,90,0.0,0.0,90,0.00,-RA,SKC,0.06,WeatherDisplay:10.37,2013-02-19 23:06:00,
2013-02-20 00:11:00,34.7,32.1,29.85,NNW,338,0.0,0.0,90,0.00,-RA,SKC,0.06,WeatherDisplay:10.37,2013-02-19 23:11:00,
2013-02-20 00:16:00,34.9,32.2,29.85,South,180,0.0,0.0,90,0.00,OVC,SKC,0.06,WeatherDisplay:10.37,2013-02-19 23:16:00,
2013-02-20 00:21:00,34.9,32.2,29.85,South,180,0.0,0.0,90,0.00,OVC,SKC,0.06,WeatherDisplay:10.37,2013-02-19 23:21:00,
2013-02-20 00:26:00,34.9,32.2,29.85,West,270,0.0,0.0,90,0.02,RA,SKC,0.08,WeatherDisplay:10.37,2013-02-19 23:26:00,
2013-02-20 00:31:00,34.9,32.2,29.85,NE,45,1.1,1.1,90,0.02,RA,SKC,0.08,WeatherDisplay:10.37,2013-02-19 23:31:00,
2013-02-20 00:36:00,34.9,32.2,29.85,NNW,338,0.0,0.0,90,0.02,OVC,SKC,0.08,WeatherDisplay:10.37,2013-02-19 23:36:00,
2013-02-20 00:41:00,34.9,32.2,29.85,NW,315,0.0,0.0,90,0.02,OVC,SKC,0.08,WeatherDisplay:10.37,2013-02-19 23:41:00,
2013-02-20 00:46:00,34.9,32.2,29.85,East,90,0.0,0.0,90,0.02,OVC,SKC,0.08,WeatherDisplay:10.37,2013-02-19 23:46:00,
2013-02-20 00:51:00,34.9,32.2,29.85,East,90,0.0,0.0,90,0.02,OVC,SKC,0.08,WeatherDisplay:10.37,2013-02-19 23:51:00,
2013-02-20 00:56:00,34.9,32.2,29.85,ENE,68,0.0,0.0,90,0.02,OVC,SKC,0.08,WeatherDisplay:10.37,2013-02-19 23:56:00,
2013-02-20 01:01:00,34.9,32.2,29.85,ENE,68,0.0,0.0,90,0.02,OVC,SKC,0.08,WeatherDisplay:10.37,2013-02-20 00:01:00,
2013-02-20 01:06:00,34.9,32.2,29.85,ENE,68,0.0,0.0,90,0.02,OVC,SKC,0.08,WeatherDisplay:10.37,2013-02-20 00:06:00,
2013-02-20 01:11:00,34.9,32.2,29.85,East,90,0.0,0.0,90,0.02,OVC,SKC,0.08,WeatherDisplay:10.37,2013-02-20 00:11:00,
2013-02-20 01:16:00,34.7,32.1,29.85,East,90,0.0,0.0,90,0.02,-RA,SKC,0.08,WeatherDisplay:10.37,2013-02-20 00:16:00,
2013-02-20 01:21:00,34.7,32.1,29.84,North,0,0.0,0.0,90,0.02,-RA,SKC,0.08,WeatherDisplay:10.37,2013-02-20 00:21:00,
2013-02-20 01:26:00,34.7,32.1,29.85,ESE,112,0.0,0.0,90,0.00,-RA,SKC,0.08,WeatherDisplay:10.37,2013-02-20 00:26:00,
2013-02-20 01:31:00,34.7,32.1,29.85,ESE,112,0.0,0.0,90,0.00,-RA,SKC,0.08,WeatherDisplay:10.37,2013-02-20 00:31:00,
2013-02-20 01:36:00,34.7,32.1,29.85,SE,135,0.0,0.0,90,0.00,-RA,SKC,0.08,WeatherDisplay:10.37,2013-02-20 00:36:00,
2013-02-20 01:41:00,34.9,32.2,29.85,ESE,112,0.0,0.0,90,0.00,-RA,SKC,0.08,WeatherDisplay:10.37,2013-02-20 00:41:00,
2013-02-20 01:46:00,34.9,32.2,29.85,East,90,0.0,0.0,90,0.00,BKN,SKC,0.08,WeatherDisplay:10.37,2013-02-20 00:46:00,
2013-02-20 01:51:00,34.9,32.2,29.84,ESE,112,0.0,0.0,90,0.00,BKN,SKC,0.08,WeatherDisplay:10.37,2013-02-20 00:51:00,
2013-02-20 01:56:00,34.9,32.2,29.84,WNW,292,0.0,0.0,90,0.00,BKN,SKC,0.08,WeatherDisplay:10.37,2013-02-20 00:56:00,
2013-02-20 02:01:00,34.9,32.2,29.85,NE,45,0.2,2.3,90,0.00,BKN,SKC,0.08,WeatherDisplay:10.37,2013-02-20 01:01:00,
2013-02-20 02:06:00,35.2,32.6,29.84,West,270,0.7,2.3,90,0.00,BKN,SKC,0.08,WeatherDisplay:10.37,2013-02-20 01:06:00,
2013-02-20 02:11:00,35.2,32.6,29.84,NNW,338,1.3,1.3,90,0.00,BKN,SKC,0.08,WeatherDisplay:10.37,2013-02-20 01:11:00,
2013-02-20 02:16:00,35.2,32.6,29.84,NNE,22,1.6,1.6,90,0.00,BKN,SKC,0.08,WeatherDisplay:10.37,2013-02-20 01:16:00,
2013-02-20 02:21:00,35.2,32.6,29.84,West,270,2.0,2.3,90,0.00,BKN,SKC,0.08,WeatherDisplay:10.37,2013-02-20 01:21:00,
2013-02-20 02:26:00,35.2,32.3,29.84,North,0,2.0,3.5,89,0.00,BKN,SKC,0.08,WeatherDisplay:10.37,2013-02-20 01:26:00,
2013-02-20 02:31:00,35.2,32.3,29.84,NE,45,0.9,1.1,89,0.00,BKN,SKC,0.08,WeatherDisplay:10.37,2013-02-20 01:31:00,
2013-02-20 02:36:00,35.2,32.3,29.85,NNE,22,0.0,6.9,89,0.00,BKN,SKC,0.08,WeatherDisplay:10.37,2013-02-20 01:36:00,
2013-02-20 02:41:00,35.2,32.3,29.85,ENE,68,0.0,1.1,89,0.00,BKN,SKC,0.08,WeatherDisplay:10.37,2013-02-20 01:41:00,
2013-02-20 02:46:00,35.2,32.3,29.85,WSW,248,1.3,1.3,89,0.00,BKN,SKC,0.08,WeatherDisplay:10.37,2013-02-20 01:46:00,
2013-02-20 02:51:00,35.1,32.1,29.84,South,180,0.5,3.5,89,0.00,BKN,SKC,0.08,WeatherDisplay:10.37,2013-02-20 01:51:00,
2013-02-20 02:56:00,35.1,32.1,29.84,South,180,0.0,0.0,89,0.00,BKN,SKC,0.08,WeatherDisplay:10.37,2013-02-20 01:56:00,
2013-02-20 03:01:00,35.1,32.1,29.85,ESE,112,5.8,5.8,89,0.00,BKN,SKC,0.08,WeatherDisplay:10.37,2013-02-20 02:01:00,
2013-02-20 03:06:00,34.9,31.7,29.85,North,0,3.1,3.5,88,0.00,BKN,SKC,0.08,WeatherDisplay:10.37,2013-02-20 02:06:00,
2013-02-20 03:11:00,34.9,31.7,29.85,NNE,22,2.0,2.3,88,0.00,BKN,SKC,0.08,WeatherDisplay:10.37,2013-02-20 02:11:00,
2013-02-20 03:16:00,34.9,31.7,29.85,NNE,22,2.0,2.3,88,0.00,BKN,SKC,0.08,WeatherDisplay:10.37,2013-02-20 02:16:00,
2013-02-20 03:21:00,34.9,31.7,29.85,NNE,24,2.0,2.3,88,0.00,BKN,SKC,0.08,WeatherDisplay:10.37,2013-02-20 02:21:00,
2013-02-20 03:26:00,34.9,31.7,29.85,NNE,24,2.0,2.3,88,0.00,BKN,SKC,0.08,WeatherDisplay:10.37,2013-02-20 02:26:00,
2013-02-20 03:31:00,35.1,31.9,29.85,WNW,292,2.9,3.5,88,0.00,BKN,SKC,0.08,WeatherDisplay:10.37,2013-02-20 02:31:00,
2013-02-20 03:36:00,35.2,32.0,29.85,NNW,338,0.0,0.0,88,0.00,BKN,SKC,0.08,WeatherDisplay:10.37,2013-02-20 02:36:00,
2013-02-20 03:41:00,35.1,31.9,29.85,NW,315,3.4,3.5,88,0.00,BKN,SKC,0.08,WeatherDisplay:10.37,2013-02-20 02:41:00,
2013-02-20 03:46:00,35.1,31.9,29.86,NW,315,3.0,5.8,88,0.00,BKN,SKC,0.08,WeatherDisplay:10.37,2013-02-20 02:46:00,
2013-02-20 03:51:00,34.9,31.4,29.86,NW,315,1.1,1.1,87,0.00,BKN,SKC,0.08,WeatherDisplay:10.37,2013-02-20 02:51:00,
2013-02-20 03:56:00,34.9,31.4,29.86,NW,315,1.1,1.1,87,0.00,BKN,SKC,0.08,WeatherDisplay:10.37,2013-02-20 02:56:00,
2013-02-20 04:01:00,34.9,31.4,29.86,NNW,338,1.8,2.3,87,0.00,BKN,SKC,0.08,WeatherDisplay:10.37,2013-02-20 03:01:00,
2013-02-20 04:06:00,34.9,31.4,29.87,West,270,0.0,0.0,87,0.00,BKN,SKC,0.08,WeatherDisplay:10.37,2013-02-20 03:06:00,
2013-02-20 04:11:00,34.7,31.2,29.86,WSW,248,1.3,2.3,87,0.00,BKN,SKC,0.08,WeatherDisplay:10.37,2013-02-20 03:11:00,
2013-02-20 04:16:00,34.7,31.2,29.87,NW,315,3.5,3.5,87,0.00,BKN,SKC,0.08,WeatherDisplay:10.37,2013-02-20 03:16:00,
2013-02-20 04:21:00,34.5,31.0,29.87,ESE,112,0.0,3.5,87,0.00,BKN,SKC,0.08,WeatherDisplay:10.37,2013-02-20 03:21:00,
2013-02-20 04:26:00,34.5,31.0,29.87,ESE,112,0.8,3.5,87,0.00,BKN,SKC,0.08,WeatherDisplay:10.37,2013-02-20 03:26:00,
2013-02-20 04:31:00,34.5,31.0,29.87,North,0,2.5,2.5,87,0.00,BKN,SKC,0.08,WeatherDisplay:10.37,2013-02-20 03:31:00,
2013-02-20 04:40:00,34.3,30.9,29.87,North,0,1.5,1.5,87,0.00,BKN,SKC,0.08,WeatherDisplay:10.37,2013-02-20 03:40:00,
2013-02-20 04:45:00,34.3,30.9,29.88,NNW,338,0.7,3.5,87,0.00,BKN,SKC,0.08,WeatherDisplay:10.37,2013-02-20 03:45:00,
2013-02-20 04:50:00,34.3,30.9,29.88,North,0,2.0,2.3,87,0.00,BKN,SKC,0.08,WeatherDisplay:10.37,2013-02-20 03:50:00,
2013-02-20 04:55:00,34.3,30.9,29.88,NNW,338,6.2,8.1,87,0.00,BKN,SKC,0.08,WeatherDisplay:10.37,2013-02-20 03:55:00,
2013-02-20 05:00:00,34.3,30.9,29.88,North,0,0.7,2.0,87,0.00,BKN,SKC,0.08,WeatherDisplay:10.37,2013-02-20 04:00:00,
2013-02-20 05:05:00,34.3,30.9,29.88,NW,315,2.0,3.4,87,0.00,BKN,SKC,0.08,WeatherDisplay:10.37,2013-02-20 04:05:00,
2013-02-20 05:10:00,34.2,30.7,29.87,NNW,338,0.0,3.5,87,0.00,BKN,SKC,0.08,WeatherDisplay:10.37,2013-02-20 04:10:00,
2013-02-20 05:15:00,34.2,30.7,29.87,NNW,338,0.0,0.0,87,0.00,BKN,SKC,0.08,WeatherDisplay:10.37,2013-02-20 04:15:00,
2013-02-20 05:20:00,34.2,30.7,29.87,NNW,338,0.0,0.0,87,0.00,BKN,SKC,0.08,WeatherDisplay:10.37,2013-02-20 04:20:00,
2013-02-20 05:25:00,34.2,30.7,29.87,NNW,339,0.0,0.0,87,0.00,BKN,SKC,0.08,WeatherDisplay:10.37,2013-02-20 04:25:00,
2013-02-20 05:30:00,34.2,30.7,29.88,NNW,339,0.0,0.0,87,0.00,BKN,SKC,0.08,WeatherDisplay:10.37,2013-02-20 04:30:00,
2013-02-20 05:35:00,34.2,30.7,29.87,NNW,338,1.1,1.1,87,0.00,BKN,SKC,0.08,WeatherDisplay:10.37,2013-02-20 04:35:00,
2013-02-20 05:40:00,33.3,29.8,29.88,NNW,338,1.6,2.3,87,0.00,BKN,SKC,0.08,WeatherDisplay:10.37,2013-02-20 04:40:00,
2013-02-20 05:45:00,33.1,29.6,29.88,NNW,338,0.0,0.0,87,0.00,BKN,SKC,0.08,WeatherDisplay:10.37,2013-02-20 04:45:00,
2013-02-20 05:50:00,33.1,29.6,29.88,NNW,338,0.0,0.0,87,0.00,OVC,SKC,0.08,WeatherDisplay:10.37,2013-02-20 04:50:00,
2013-02-20 05:55:00,32.9,29.5,29.88,NNW,338,2.6,4.6,87,0.00,OVC,SKC,0.08,WeatherDisplay:10.37,2013-02-20 04:55:00,
2013-02-20 06:00:00,32.7,29.3,29.88,NNW,338,2.5,2.5,87,0.00,OVC,SKC,0.08,WeatherDisplay:10.37,2013-02-20 05:00:00,
2013-02-20 06:05:00,32.7,29.3,29.89,NNW,338,1.5,3.5,87,0.00,OVC,SKC,0.08,WeatherDisplay:10.37,2013-02-20 05:05:00,
2013-02-20 06:10:00,32.9,29.5,29.89,NNW,338,2.0,2.0,87,0.00,OVC,SKC,0.08,WeatherDisplay:10.37,2013-02-20 05:10:00,
2013-02-20 06:15:00,32.7,29.3,29.89,NNW,338,5.8,5.8,87,0.00,OVC,SKC,0.08,WeatherDisplay:10.37,2013-02-20 05:15:00,
2013-02-20 06:20:00,32.7,29.0,29.89,NNW,338,2.0,2.3,86,0.00,BKN,SKC,0.08,WeatherDisplay:10.37,2013-02-20 05:20:00,
2013-02-20 06:25:00,32.7,29.0,29.88,NNW,338,2.0,2.3,86,0.00,BKN,SKC,0.08,WeatherDisplay:10.37,2013-02-20 05:25:00,
2013-02-20 06:30:00,32.7,29.0,29.88,NNW,338,0.0,0.0,86,0.00,BKN,SKC,0.08,WeatherDisplay:10.37,2013-02-20 05:30:00,
2013-02-20 06:35:00,32.7,29.0,29.89,NNW,338,4.8,6.9,86,0.00,BKN,SKC,0.08,WeatherDisplay:10.37,2013-02-20 05:35:00,
2013-02-20 06:40:00,32.7,29.0,29.90,NNW,338,4.5,4.6,86,0.00,BKN,SKC,0.08,WeatherDisplay:10.37,2013-02-20 05:40:00,
2013-02-20 06:45:00,32.7,29.0,29.90,NNW,338,5.3,9.2,86,0.00,BKN,SKC,0.08,WeatherDisplay:10.37,2013-02-20 05:45:00,
2013-02-20 06:50:00,32.7,29.0,29.90,NNW,338,1.0,1.0,86,0.00,SCT,SKC,0.08,WeatherDisplay:10.37,2013-02-20 05:50:00,
2013-02-20 06:55:00,32.7,29.0,29.90,NNW,338,4.3,5.8,86,0.00,SCT,SKC,0.08,WeatherDisplay:10.37,2013-02-20 05:55:00,
2013-02-20 07:00:00,32.7,29.0,29.90,NNW,338,1.1,1.1,86,0.00,RA,SKC,0.00,WeatherDisplay:10.37,2013-02-20 06:00:00,
2013-02-20 07:05:00,32.7,29.0,29.91,NNW,338,4.9,4.9,86,0.00,RA,SKC,0.00,WeatherDisplay:10.37,2013-02-20 06:05:00,
2013-02-20 07:10:00,32.7,29.0,29.91,NNW,338,0.2,3.5,86,0.00,SCT,SKC,0.00,WeatherDisplay:10.37,2013-02-20 06:10:00,
2013-02-20 07:15:00,32.7,29.0,29.91,NNW,338,0.0,0.0,86,0.00,SCT,SKC,0.00,WeatherDisplay:10.37,2013-02-20 06:15:00,
2013-02-20 07:20:00,32.9,29.2,29.92,NNW,338,1.5,3.5,86,0.00,SCT,SKC,0.00,WeatherDisplay:10.37,2013-02-20 06:20:00,
2013-02-20 07:25:00,32.7,29.0,29.92,NNW,338,2.5,6.7,86,0.00,SCT,SKC,0.00,WeatherDisplay:10.37,2013-02-20 06:25:00,
2013-02-20 07:30:00,32.9,29.2,29.92,NNW,338,6.0,6.0,86,0.00,SCT,SKC,0.00,WeatherDisplay:10.37,2013-02-20 06:30:00,
2013-02-20 07:35:00,33.1,29.1,29.92,NNW,338,8.0,8.1,85,0.00,SCT,SKC,0.00,WeatherDisplay:10.37,2013-02-20 06:35:00,
2013-02-20 07:40:00,33.1,29.1,29.92,NNW,338,3.1,3.5,85,0.00,SCT,SKC,0.00,WeatherDisplay:10.37,2013-02-20 06:40:00,
2013-02-20 07:45:00,33.4,29.4,29.92,NNW,338,0.7,1.1,85,0.00,SCT,SKC,0.00,WeatherDisplay:10.37,2013-02-20 06:45:00,
2013-02-20 07:50:00,33.6,29.6,29.92,NNW,338,3.1,5.8,85,0.00,SCT,SKC,0.00,WeatherDisplay:10.37,2013-02-20 06:50:00,
2013-02-20 07:55:00,33.6,29.6,29.92,NNW,338,3.8,3.8,85,0.00,SCT,SKC,0.00,WeatherDisplay:10.37,2013-02-20 06:55:00,
2013-02-20 08:00:00,34.0,29.7,29.92,NNW,338,1.3,2.3,84,0.00,SCT,SKC,0.00,WeatherDisplay:10.37,2013-02-20 07:00:00,
2013-02-20 08:05:00,34.3,30.0,29.92,NNW,338,1.0,1.1,84,0.00,SCT,SKC,0.00,WeatherDisplay:10.37,2013-02-20 07:05:00,
2013-02-20 08:10:00,34.3,30.0,29.93,NNW,338,2.1,7.4,84,0.00,SCT,SKC,0.00,WeatherDisplay:10.37,2013-02-20 07:10:00,
2013-02-20 08:15:00,34.2,29.5,29.93,WNW,292,4.1,8.1,83,0.00,SCT,SKC,0.00,WeatherDisplay:10.37,2013-02-20 07:15:00,
2013-02-20 08:20:00,34.2,29.5,29.93,NNW,338,0.0,0.0,83,0.00,SCT,SKC,0.00,WeatherDisplay:10.37,2013-02-20 07:20:00,
2013-02-20 08:25:00,34.2,29.5,29.93,NE,45,2.3,2.3,83,0.00,SCT,SKC,0.00,WeatherDisplay:10.37,2013-02-20 07:25:00,
2013-02-20 08:30:00,34.3,29.7,29.94,WNW,292,4.5,4.6,83,0.00,SCT,SKC,0.00,WeatherDisplay:10.37,2013-02-20 07:30:00,
2013-02-20 08:35:00,34.7,30.1,29.94,NW,315,0.0,0.0,83,0.00,SCT,SKC,0.00,WeatherDisplay:10.37,2013-02-20 07:35:00,
2013-02-20 08:40:00,34.9,30.2,29.94,NW,315,2.9,3.5,83,0.00,SCT,SKC,0.00,WeatherDisplay:10.37,2013-02-20 07:40:00,
2013-02-20 08:45:00,34.7,29.8,29.94,NNE,22,3.6,3.6,82,0.00,SCT,SKC,0.00,WeatherDisplay:10.37,2013-02-20 07:45:00,
2013-02-20 08:50:00,34.7,29.8,29.94,NNW,338,2.8,3.5,82,0.00,SCT,SKC,0.00,WeatherDisplay:10.37,2013-02-20 07:50:00,
2013-02-20 08:55:00,34.7,29.8,29.95,NW,315,0.0,0.0,82,0.00,SCT,SKC,0.00,WeatherDisplay:10.37,2013-02-20 07:55:00,
2013-02-20 09:00:00,34.9,29.6,29.94,NW,315,4.0,8.1,81,0.00,SCT,SKC,0.00,WeatherDisplay:10.37,2013-02-20 08:00:00,
2013-02-20 09:05:00,34.7,29.5,29.94,North,0,3.6,6.9,81,0.00,SCT,SKC,0.00,WeatherDisplay:10.37,2013-02-20 08:05:00,
2013-02-20 09:10:00,35.1,29.5,29.94,NNW,338,5.6,9.2,80,0.00,SCT,SKC,0.00,WeatherDisplay:10.37,2013-02-20 08:10:00,
2013-02-20 09:15:00,35.4,29.9,29.94,West,270,2.9,3.5,80,0.00,SCT,SKC,0.00,WeatherDisplay:10.37,2013-02-20 08:15:00,
2013-02-20 09:20:00,35.4,29.6,29.94,North,0,3.9,4.7,79,0.00,SCT,SKC,0.00,WeatherDisplay:10.37,2013-02-20 08:20:00,
2013-02-20 09:25:00,36.0,30.1,29.95,West,270,3.3,15.0,79,0.00,SCT,SKC,0.00,WeatherDisplay:10.37,2013-02-20 08:25:00,
2013-02-20 09:30:00,35.8,29.9,29.95,NNW,338,4.7,4.7,79,0.00,SCT,SKC,0.00,WeatherDisplay:10.37,2013-02-20 08:30:00,
2013-02-20 09:35:00,35.4,29.6,29.95,WNW,292,4.2,8.1,79,0.00,SCT,SKC,0.00,WeatherDisplay:10.37,2013-02-20 08:35:00,
2013-02-20 09:40:00,35.4,29.6,29.95,WNW,292,2.0,2.3,79,0.00,SCT,SKC,0.00,WeatherDisplay:10.37,2013-02-20 08:40:00,
2013-02-20 09:45:00,35.2,29.4,29.95,NNE,22,4.9,5.8,79,0.00,SCT,SKC,0.00,WeatherDisplay:10.37,2013-02-20 08:45:00,
2013-02-20 09:50:00,35.2,29.4,29.95,WSW,248,2.9,4.6,79,0.00,BKN,SKC,0.00,WeatherDisplay:10.37,2013-02-20 08:50:00,
2013-02-20 09:55:00,35.4,29.6,29.95,NW,315,6.1,6.9,79,0.00,BKN,SKC,0.00,WeatherDisplay:10.37,2013-02-20 08:55:00,
2013-02-20 10:00:00,35.2,29.1,29.95,NNW,338,1.6,1.6,78,0.00,BKN,SKC,0.00,WeatherDisplay:10.37,2013-02-20 09:00:00,
2013-02-20 10:05:00,35.4,29.6,29.95,North,0,3.6,3.6,79,0.00,BKN,SKC,0.00,WeatherDisplay:10.37,2013-02-20 09:05:00,
2013-02-20 10:10:00,35.4,29.2,29.96,West,270,4.4,6.9,78,0.00,BKN,SKC,0.00,WeatherDisplay:10.37,2013-02-20 09:10:00,
2013-02-20 10:15:00,35.4,29.2,29.96,SW,225,6.3,10.5,78,0.00,BKN,SKC,0.00,WeatherDisplay:10.37,2013-02-20 09:15:00,
2013-02-20 10:20:00,35.4,29.2,29.96,WSW,248,4.7,4.7,78,0.00,BKN,SKC,0.00,WeatherDisplay:10.37,2013-02-20 09:20:00,
2013-02-20 10:25:00,35.6,29.4,29.96,NNW,338,4.5,4.6,78,0.00,BKN,SKC,0.00,WeatherDisplay:10.37,2013-02-20 09:25:00,
2013-02-20 10:30:00,36.5,30.0,29.96,NW,315,4.5,8.1,77,0.00,BKN,SKC,0.00,WeatherDisplay:10.37,2013-02-20 09:30:00,
2013-02-20 10:35:00,36.3,29.8,29.97,West,270,6.1,6.1,77,0.00,BKN,SKC,0.00,WeatherDisplay:10.37,2013-02-20 09:35:00,
2013-02-20 10:40:00,36.3,29.5,29.96,WNW,292,13.4,13.8,76,0.00,BKN,SKC,0.00,WeatherDisplay:10.37,2013-02-20 09:40:00,
2013-02-20 10:45:00,36.7,29.5,29.96,WNW,292,4.3,6.9,75,0.00,BKN,SKC,0.00,WeatherDisplay:10.37,2013-02-20 09:45:00,
2013-02-20 10:50:00,37.2,29.7,29.96,NW,315,5.7,8.1,74,0.00,BKN,SKC,0.00,WeatherDisplay:10.37,2013-02-20 09:50:00,
2013-02-20 10:55:00,37.6,29.7,29.96,North,0,2.7,5.8,73,0.00,BKN,SKC,0.00,WeatherDisplay:10.37,2013-02-20 09:55:00,
2013-02-20 11:00:00,37.8,29.9,29.96,NW,315,8.5,8.5,73,0.00,BKN,SKC,0.00,WeatherDisplay:10.37,2013-02-20 10:00:00,
2013-02-20 11:05:00,38.1,29.9,29.97,NW,315,5.5,6.9,72,0.00,BKN,SKC,0.00,WeatherDisplay:10.37,2013-02-20 10:05:00,
2013-02-20 11:10:00,38.3,30.1,29.97,NNW,338,9.3,12.7,72,0.00,BKN,SKC,0.00,WeatherDisplay:10.37,2013-02-20 10:10:00,
2013-02-20 11:15:00,37.8,29.2,29.97,ENE,68,6.5,10.4,71,0.00,BKN,SKC,0.00,WeatherDisplay:10.37,2013-02-20 10:15:00,
2013-02-20 11:20:00,37.2,28.7,29.97,NNW,338,6.7,11.5,71,0.00,BKN,SKC,0.00,WeatherDisplay:10.37,2013-02-20 10:20:00,
2013-02-20 11:25:00,37.0,28.8,29.97,NNW,338,4.2,4.6,72,0.00,BKN,SKC,0.00,WeatherDisplay:10.37,2013-02-20 10:25:00,
2013-02-20 11:30:00,37.2,28.7,29.96,NNW,338,5.2,6.9,71,0.00,BKN,SKC,0.00,WeatherDisplay:10.37,2013-02-20 10:30:00,
2013-02-20 11:35:00,37.4,28.9,29.96,NNE,22,1.6,1.6,71,0.00,BKN,SKC,0.00,WeatherDisplay:10.37,2013-02-20 10:35:00,
2013-02-20 11:40:00,37.9,28.7,29.96,North,0,4.9,10.4,69,0.00,BKN,SKC,0.00,WeatherDisplay:10.37,2013-02-20 10:40:00,
2013-02-20 11:45:00,37.6,28.3,29.96,North,0,6.1,11.5,69,0.00,BKN,SKC,0.00,WeatherDisplay:10.37,2013-02-20 10:45:00,
2013-02-20 11:50:00,37.9,28.7,29.96,NNW,338,8.9,12.7,69,0.00,BKN,SKC,0.00,WeatherDisplay:10.37,2013-02-20 10:50:00,
2013-02-20 11:55:00,38.3,29.0,29.96,NNW,338,0.9,1.1,69,0.00,BKN,SKC,0.00,WeatherDisplay:10.37,2013-02-20 10:55:00,
2013-02-20 12:00:00,38.3,29.0,29.95,WNW,292,2.5,2.5,69,0.00,BKN,SKC,0.00,WeatherDisplay:10.37,2013-02-20 11:00:00,
2013-02-20 12:05:00,38.5,28.5,29.95,NNE,22,5.9,10.4,67,0.00,BKN,SKC,0.00,WeatherDisplay:10.37,2013-02-20 11:05:00,
2013-02-20 12:10:00,38.8,29.2,29.96,East,90,2.0,3.5,68,0.00,BKN,SKC,0.00,WeatherDisplay:10.37,2013-02-20 11:10:00,
2013-02-20 12:15:00,39.0,28.6,29.95,WNW,292,4.9,8.0,66,0.00,BKN,SKC,0.00,WeatherDisplay:10.37,2013-02-20 11:15:00,
2013-02-20 12:20:00,38.8,28.8,29.95,NNE,22,3.1,3.5,67,0.00,BKN,SKC,0.00,WeatherDisplay:10.37,2013-02-20 11:20:00,
2013-02-20 12:25:00,38.8,28.8,29.96,West,270,0.9,1.1,67,0.00,BKN,SKC,0.00,WeatherDisplay:10.37,2013-02-20 11:25:00,
2013-02-20 12:30:00,38.8,28.8,29.96,NNW,338,6.1,6.1,67,0.00,BKN,SKC,0.00,WeatherDisplay:10.37,2013-02-20 11:30:00,
2013-02-20 12:35:00,38.8,28.8,29.96,North,0,2.9,4.6,67,0.00,BKN,SKC,0.00,WeatherDisplay:10.37,2013-02-20 11:35:00,
2013-02-20 12:40:00,38.8,28.8,29.96,NW,315,3.8,3.8,67,0.00,BKN,SKC,0.00,WeatherDisplay:10.37,2013-02-20 11:40:00,
2013-02-20 12:45:00,38.8,28.8,29.96,WNW,292,6.5,6.9,67,0.00,BKN,SKC,0.00,WeatherDisplay:10.37,2013-02-20 11:45:00,
2013-02-20 12:50:00,39.0,29.0,29.97,North,0,3.2,5.8,67,0.00,BKN,SKC,0.00,WeatherDisplay:10.37,2013-02-20 11:50:00,
2013-02-20 12:55:00,38.5,28.8,29.97,West,270,3.4,6.9,68,0.00,BKN,SKC,0.00,WeatherDisplay:10.37,2013-02-20 11:55:00,
2013-02-20 13:00:00,38.5,28.8,29.97,West,270,3.4,3.5,68,0.00,BKN,SKC,0.00,WeatherDisplay:10.37,2013-02-20 12:00:00,
2013-02-20 13:05:00,39.0,29.3,29.97,NNE,22,4.8,9.4,68,0.00,BKN,SKC,0.00,WeatherDisplay:10.37,2013-02-20 12:05:00,
2013-02-20 13:10:00,38.5,28.8,29.97,NNE,22,4.5,4.6,68,0.00,BKN,SKC,0.00,WeatherDisplay:10.37,2013-02-20 12:10:00,
2013-02-20 13:15:00,38.1,28.8,29.97,NNW,338,2.1,5.8,69,0.00,BKN,SKC,0.00,WeatherDisplay:10.37,2013-02-20 12:15:00,
2013-02-20 13:20:00,38.1,28.8,29.96,WNW,292,1.8,2.3,69,0.00,SCT,SKC,0.00,WeatherDisplay:10.37,2013-02-20 12:20:00,
2013-02-20 13:25:00,38.5,29.2,29.96,NNE,22,2.2,2.3,69,0.00,SCT,SKC,0.00,WeatherDisplay:10.37,2013-02-20 12:25:00,
2013-02-20 13:30:00,39.0,29.3,29.96,NNE,22,3.8,3.8,68,0.00,SCT,SKC,0.00,WeatherDisplay:10.37,2013-02-20 12:30:00,
2013-02-20 13:35:00,38.8,29.2,29.96,NW,315,5.1,5.1,68,0.00,SCT,SKC,0.00,WeatherDisplay:10.37,2013-02-20 12:35:00,
2013-02-20 13:40:00,39.4,29.7,29.96,NE,45,1.8,3.5,68,0.00,SCT,SKC,0.00,WeatherDisplay:10.37,2013-02-20 12:40:00,
2013-02-20 13:45:00,39.4,29.7,29.96,ENE,68,3.6,4.6,68,0.00,SCT,SKC,0.00,WeatherDisplay:10.37,2013-02-20 12:45:00,
2013-02-20 13:50:00,39.4,30.1,29.97,NW,315,3.6,3.6,69,0.00,BKN,SKC,0.00,WeatherDisplay:10.37,2013-02-20 12:50:00,
2013-02-20 13:55:00,38.5,29.5,29.97,West,270,4.2,4.6,70,0.00,BKN,SKC,0.00,WeatherDisplay:10.37,2013-02-20 12:55:00,
2013-02-20 14:00:00,38.5,29.9,29.97,North,0,4.8,4.8,71,0.00,BKN,SKC,0.00,WeatherDisplay:10.37,2013-02-20 13:00:00,
2013-02-20 14:05:00,38.1,29.5,29.97,NW,315,2.0,2.3,71,0.00,BKN,SKC,0.00,WeatherDisplay:10.37,2013-02-20 13:05:00,
2013-02-20 14:10:00,37.6,29.7,29.97,NNE,22,0.0,0.0,73,0.00,BKN,SKC,0.00,WeatherDisplay:10.37,2013-02-20 13:10:00,
2013-02-20 14:15:00,37.8,29.9,29.97,North,0,1.1,1.1,73,0.00,BKN,SKC,0.00,WeatherDisplay:10.37,2013-02-20 13:15:00,
2013-02-20 14:20:00,37.9,30.1,29.96,NW,315,0.9,1.1,73,0.00,BKN,SKC,0.00,WeatherDisplay:10.37,2013-02-20 13:20:00,
2013-02-20 14:25:00,37.6,29.7,29.97,NNW,338,3.6,6.9,73,0.00,BKN,SKC,0.00,WeatherDisplay:10.37,2013-02-20 13:25:00,
2013-02-20 14:30:00,37.2,29.4,29.97,NW,315,6.0,6.0,73,0.00,BKN,SKC,0.00,WeatherDisplay:10.37,2013-02-20 13:30:00,
2013-02-20 14:35:00,36.5,28.7,29.97,NNE,22,2.6,5.8,73,0.00,BKN,SKC,0.00,WeatherDisplay:10.37,2013-02-20 13:35:00,
2013-02-20 14:40:00,36.3,28.8,29.97,NNE,22,0.4,1.1,74,0.00,BKN,SKC,0.00,WeatherDisplay:10.37,2013-02-20 13:40:00,
2013-02-20 14:45:00,36.7,29.2,29.97,East,90,1.1,1.1,74,0.00,BKN,SKC,0.00,WeatherDisplay:10.37,2013-02-20 13:45:00,
2013-02-20 14:50:00,37.0,29.8,29.97,South,180,0.2,1.1,75,0.00,BKN,SKC,0.00,WeatherDisplay:10.37,2013-02-20 13:50:00,
2013-02-20 14:55:00,37.2,30.0,29.97,East,90,0.0,0.0,75,0.00,BKN,SKC,0.00,WeatherDisplay:10.37,2013-02-20 13:55:00,
2013-02-20 15:00:00,37.6,29.7,29.97,NNW,338,4.9,4.9,73,0.00,BKN,SKC,0.00,WeatherDisplay:10.37,2013-02-20 14:00:00,
2013-02-20 15:05:00,37.8,29.5,29.97,WNW,292,4.3,4.6,72,0.00,BKN,SKC,0.00,WeatherDisplay:10.37,2013-02-20 14:05:00,
2013-02-20 15:10:00,37.6,29.4,29.97,NNE,22,3.1,3.5,72,0.00,BKN,SKC,0.00,WeatherDisplay:10.37,2013-02-20 14:10:00,
2013-02-20 15:15:00,37.2,28.7,29.97,WNW,292,9.4,9.6,71,0.00,BKN,SKC,0.00,WeatherDisplay:10.37,2013-02-20 14:15:00,
2013-02-20 15:20:00,37.2,28.7,29.97,North,0,0.7,1.1,71,0.00,BKN,SKC,0.00,WeatherDisplay:10.37,2013-02-20 14:20:00,
2013-02-20 15:25:00,37.8,29.5,29.97,North,0,3.1,6.9,72,0.00,BKN,SKC,0.00,WeatherDisplay:10.37,2013-02-20 14:25:00,
2013-02-20 15:30:00,37.6,28.7,29.97,SE,135,0.9,1.1,70,0.00,BKN,SKC,0.00,WeatherDisplay:10.37,2013-02-20 14:30:00,
2013-02-20 15:35:00,37.4,28.5,29.98,NW,315,5.4,5.8,70,0.00,BKN,SKC,0.00,WeatherDisplay:10.37,2013-02-20 14:35:00,
2013-02-20 15:40:00,37.0,27.8,29.97,NW,315,5.1,5.1,69,0.00,BKN,SKC,0.00,WeatherDisplay:10.37,2013-02-20 14:40:00,
2013-02-20 15:45:00,36.5,27.6,29.98,NW,315,1.5,6.5,70,0.00,BKN,SKC,0.00,WeatherDisplay:10.37,2013-02-20 14:45:00,
2013-02-20 15:50:00,36.3,27.5,29.97,NW,315,2.4,5.8,70,0.00,BKN,SKC,0.00,WeatherDisplay:10.37,2013-02-20 14:50:00,
2013-02-20 15:55:00,36.3,27.5,29.97,WNW,292,1.6,1.6,70,0.00,BKN,SKC,0.00,WeatherDisplay:10.37,2013-02-20 14:55:00,
2013-02-20 16:00:00,36.5,28.0,29.97,SSW,202,1.6,1.6,71,0.00,BKN,SKC,0.00,WeatherDisplay:10.37,2013-02-20 15:00:00,
2013-02-20 16:05:00,36.5,28.0,29.97,SSW,202,1.6,1.6,71,0.00,BKN,SKC,0.00,WeatherDisplay:10.37,2013-02-20 15:05:00,
2013-02-20 16:10:00,36.7,28.5,29.98,North,0,1.5,2.3,72,0.00,BKN,SKC,0.00,WeatherDisplay:10.37,2013-02-20 15:10:00,
2013-02-20 16:15:00,36.5,28.3,29.98,West,270,0.0,0.0,72,0.00,BKN,SKC,0.00,WeatherDisplay:10.37,2013-02-20 15:15:00,
2013-02-20 16:20:00,36.3,28.2,29.98,North,0,2.5,2.5,72,0.00,SCT,SKC,0.00,WeatherDisplay:10.37,2013-02-20 15:20:00,
2013-02-20 16:25:00,36.1,28.3,29.98,NNW,338,2.9,4.0,73,0.00,SCT,SKC,0.00,WeatherDisplay:10.37,2013-02-20 15:25:00,
2013-02-20 16:30:00,36.0,28.5,29.98,West,270,3.9,10.4,74,0.00,SCT,SKC,0.00,WeatherDisplay:10.37,2013-02-20 15:30:00,
2013-02-20 16:35:00,35.4,28.6,29.98,West,270,7.6,8.1,76,0.00,SCT,SKC,0.00,WeatherDisplay:10.37,2013-02-20 15:35:00,
2013-02-20 16:40:00,35.4,28.6,29.99,WNW,292,4.5,5.8,76,0.00,SCT,SKC,0.00,WeatherDisplay:10.37,2013-02-20 15:40:00,
2013-02-20 16:45:00,35.2,28.8,29.99,WNW,292,0.9,1.3,77,0.00,SCT,SKC,0.00,WeatherDisplay:10.37,2013-02-20 15:45:00,
2013-02-20 16:50:00,35.1,28.6,29.99,NW,315,0.0,0.0,77,0.00,SCT,SKC,0.00,WeatherDisplay:10.37,2013-02-20 15:50:00,
2013-02-20 16:55:00,34.7,28.2,29.99,WNW,292,0.9,1.1,77,0.00,SCT,SKC,0.00,WeatherDisplay:10.37,2013-02-20 15:55:00,
2013-02-20 17:00:00,34.7,28.2,29.99,North,0,3.8,3.8,77,0.00,SCT,SKC,0.00,WeatherDisplay:10.37,2013-02-20 16:00:00,
2013-02-20 17:05:00,34.7,28.2,29.99,North,0,3.8,3.8,77,0.00,SCT,SKC,0.00,WeatherDisplay:10.37,2013-02-20 16:05:00,
2013-02-20 17:10:00,34.7,28.2,29.99,North,1,3.8,3.8,77,0.00,SCT,SKC,0.00,WeatherDisplay:10.37,2013-02-20 16:10:00,
2013-02-20 17:15:00,34.7,28.2,29.99,North,1,3.8,3.8,77,0.00,SCT,SKC,0.00,WeatherDisplay:10.37,2013-02-20 16:15:00,
2013-02-20 17:20:00,34.7,28.2,29.99,NNW,338,4.0,8.1,77,0.00,SCT,SKC,0.00,WeatherDisplay:10.37,2013-02-20 16:20:00,
2013-02-20 17:25:00,34.7,28.2,29.99,NW,315,4.2,4.6,77,0.00,SCT,SKC,0.00,WeatherDisplay:10.37,2013-02-20 16:25:00,
2013-02-20 17:30:00,34.7,28.2,29.99,WNW,292,4.4,5.8,77,0.00,SCT,SKC,0.00,WeatherDisplay:10.37,2013-02-20 16:30:00,
2013-02-20 17:35:00,34.5,27.7,30.00,NNW,338,0.1,3.5,76,0.00,SCT,SKC,0.00,WeatherDisplay:10.37,2013-02-20 16:35:00,
2013-02-20 17:40:00,34.5,27.7,30.00,NNW,338,0.0,0.0,76,0.00,SCT,SKC,0.00,WeatherDisplay:10.37,2013-02-20 16:40:00,
2013-02-20 17:45:00,34.0,27.8,30.00,NW,315,4.3,4.6,78,0.00,SCT,SKC,0.00,WeatherDisplay:10.37,2013-02-20 16:45:00,
2013-02-20 17:50:00,33.4,27.6,30.00,WNW,292,1.0,3.1,79,0.00,SCT,SKC,0.00,WeatherDisplay:10.37,2013-02-20 16:50:00,
2013-02-20 17:55:00,33.3,27.5,30.00,NNW,338,1.1,4.6,79,0.00,SCT,SKC,0.00,WeatherDisplay:10.37,2013-02-20 16:55:00,
2013-02-20 18:00:00,33.4,27.6,30.00,NW,315,4.5,4.6,79,0.00,SCT,SKC,0.00,WeatherDisplay:10.37,2013-02-20 17:00:00,
2013-02-20 18:05:00,33.4,27.6,30.00,East,90,3.1,4.6,79,0.00,FEW,SKC,0.00,WeatherDisplay:10.37,2013-02-20 17:05:00,
2013-02-20 18:10:00,33.4,27.3,30.00,East,90,0.0,0.0,78,0.00,FEW,SKC,0.00,WeatherDisplay:10.37,2013-02-20 17:10:00,
2013-02-20 18:15:00,33.3,27.1,30.00,East,90,0.0,0.0,78,0.00,FEW,SKC,0.00,WeatherDisplay:10.37,2013-02-20 17:15:00,
2013-02-20 18:20:00,32.7,26.9,30.01,SSE,158,0.1,2.3,79,0.00,CLR,SKC,0.00,WeatherDisplay:10.37,2013-02-20 17:20:00,
2013-02-20 18:25:00,32.7,26.9,30.01,NW,315,0.0,0.0,79,0.00,CLR,SKC,0.00,WeatherDisplay:10.37,2013-02-20 17:25:00,
2013-02-20 18:30:00,32.7,26.9,30.01,NW,315,0.0,0.0,79,0.00,CLR,SKC,0.00,WeatherDisplay:10.37,2013-02-20 17:30:00,
2013-02-20 18:35:00,32.7,26.9,30.01,NW,316,0.0,0.0,79,0.00,CLR,SKC,0.00,WeatherDisplay:10.37,2013-02-20 17:35:00,
2013-02-20 18:40:00,32.7,26.9,30.02,NW,316,0.0,0.0,79,0.00,CLR,SKC,0.00,WeatherDisplay:10.37,2013-02-20 17:40:00,
2013-02-20 18:45:00,31.8,26.7,30.02,South,180,0.0,0.0,81,0.00,CLR,SKC,0.00,WeatherDisplay:10.37,2013-02-20 17:45:00,
2013-02-20 18:50:00,31.6,26.5,30.02,South,180,0.0,0.0,81,0.00,CLR,SKC,0.00,WeatherDisplay:10.37,2013-02-20 17:50:00,
2013-02-20 18:55:00,31.6,26.5,30.01,SSE,158,0.0,0.0,81,0.00,CLR,SKC,0.00,WeatherDisplay:10.37,2013-02-20 17:55:00,
2013-02-20 19:00:00,31.6,26.5,30.02,ESE,112,0.0,0.0,81,0.00,CLR,SKC,0.00,WeatherDisplay:10.37,2013-02-20 18:00:00,
2013-02-20 19:05:00,31.8,26.7,30.01,NE,45,1.2,2.3,81,0.00,CLR,SKC,0.00,WeatherDisplay:10.37,2013-02-20 18:05:00,
2013-02-20 19:10:00,31.8,26.7,30.02,NNE,22,0.1,3.5,81,0.00,CLR,SKC,0.00,WeatherDisplay:10.37,2013-02-20 18:10:00,
2013-02-20 19:15:00,31.8,26.7,30.01,North,0,3.8,3.8,81,0.00,CLR,SKC,0.00,WeatherDisplay:10.37,2013-02-20 18:15:00,
2013-02-20 19:20:00,32.0,26.8,30.02,North,0,1.3,5.4,81,0.00,CLR,SKC,0.00,WeatherDisplay:10.37,2013-02-20 18:20:00,
2013-02-20 19:25:00,32.2,26.7,30.01,NNW,338,6.1,9.8,80,0.00,CLR,SKC,0.00,WeatherDisplay:10.37,2013-02-20 18:25:00,
2013-02-20 19:30:00,32.4,26.9,30.02,NNW,338,5.4,8.1,80,0.00,CLR,SKC,0.00,WeatherDisplay:10.37,2013-02-20 18:30:00,
2013-02-20 19:35:00,32.5,26.7,30.02,NW,315,5.4,8.9,79,0.00,CLR,SKC,0.00,WeatherDisplay:10.37,2013-02-20 18:35:00,
2013-02-20 19:40:00,32.5,26.7,30.02,NNW,338,5.4,5.8,79,0.00,CLR,SKC,0.00,WeatherDisplay:10.37,2013-02-20 18:40:00,
2013-02-20 19:45:00,32.2,26.7,30.02,NNW,338,5.6,5.8,80,0.00,CLR,SKC,0.00,WeatherDisplay:10.37,2013-02-20 18:45:00,
2013-02-20 19:50:00,32.2,26.7,30.02,NW,315,3.5,4.6,80,0.00,CLR,SKC,0.00,WeatherDisplay:10.37,2013-02-20 18:50:00,
2013-02-20 19:55:00,32.2,26.7,30.02,West,270,6.4,8.1,80,0.00,CLR,SKC,0.00,WeatherDisplay:10.37,2013-02-20 18:55:00,
2013-02-20 20:00:00,32.2,26.7,30.02,WNW,292,1.0,4.5,80,0.00,CLR,SKC,0.00,WeatherDisplay:10.37,2013-02-20 19:00:00,
2013-02-20 20:05:00,32.0,26.5,30.02,WNW,292,6.2,6.2,80,0.00,CLR,SKC,0.00,WeatherDisplay:10.37,2013-02-20 19:05:00,
2013-02-20 20:10:00,32.2,26.7,30.02,WNW,292,0.9,1.8,80,0.00,CLR,SKC,0.00,WeatherDisplay:10.37,2013-02-20 19:10:00,
2013-02-20 20:15:00,31.8,26.4,30.03,West,270,5.7,5.8,80,0.00,CLR,SKC,0.00,WeatherDisplay:10.37,2013-02-20 19:15:00,
2013-02-20 20:20:00,31.8,26.4,30.03,West,270,0.9,1.1,80,0.00,CLR,SKC,0.00,WeatherDisplay:10.37,2013-02-20 19:20:00,
2013-02-20 20:25:00,31.8,26.4,30.03,WNW,292,0.9,1.1,80,0.00,CLR,SKC,0.00,WeatherDisplay:10.37,2013-02-20 19:25:00,
2013-02-20 20:30:00,31.3,25.8,30.03,West,270,0.2,1.1,80,0.00,CLR,SKC,0.00,WeatherDisplay:10.37,2013-02-20 19:30:00,
2013-02-20 20:35:00,31.3,26.1,30.04,WSW,248,0.5,2.3,81,0.00,CLR,SKC,0.00,WeatherDisplay:10.37,2013-02-20 19:35:00,
2013-02-20 20:40:00,31.1,26.0,30.04,West,270,0.9,1.3,81,0.00,CLR,SKC,0.00,WeatherDisplay:10.37,2013-02-20 19:40:00,
2013-02-20 20:45:00,30.7,25.6,30.04,West,270,0.6,2.3,81,0.00,CLR,SKC,0.00,WeatherDisplay:10.37,2013-02-20 19:45:00,
2013-02-20 20:50:00,30.7,25.6,30.04,WNW,292,3.8,3.8,81,0.00,CLR,SKC,0.00,WeatherDisplay:10.37,2013-02-20 19:50:00,
2013-02-20 20:55:00,30.9,25.8,30.04,West,270,0.4,2.3,81,0.00,CLR,SKC,0.00,WeatherDisplay:10.37,2013-02-20 19:55:00,
2013-02-20 21:00:00,30.9,25.8,30.04,West,270,0.0,0.0,81,0.00,CLR,SKC,0.00,WeatherDisplay:10.37,2013-02-20 20:00:00,
2013-02-20 21:06:00,30.7,25.6,30.05,WNW,292,1.3,1.3,81,0.00,CLR,SKC,0.00,WeatherDisplay:10.37,2013-02-20 20:06:00,
2013-02-20 21:11:00,30.7,25.9,30.05,WNW,292,2.2,2.3,82,0.00,CLR,SKC,0.00,WeatherDisplay:10.37,2013-02-20 20:11:00,
2013-02-20 21:16:00,30.7,25.9,30.04,WNW,292,2.0,3.5,82,0.00,CLR,SKC,0.00,WeatherDisplay:10.37,2013-02-20 20:16:00,
2013-02-20 21:21:00,30.7,25.9,30.04,West,270,3.1,4.6,82,0.00,CLR,SKC,0.00,WeatherDisplay:10.37,2013-02-20 20:21:00,
2013-02-20 21:26:00,30.7,25.9,30.04,WNW,292,3.0,4.6,82,0.00,CLR,SKC,0.00,WeatherDisplay:10.37,2013-02-20 20:26:00,
2013-02-20 21:31:00,30.7,25.9,30.04,WNW,292,3.9,4.6,82,0.00,CLR,SKC,0.00,WeatherDisplay:10.37,2013-02-20 20:31:00,
2013-02-20 21:36:00,30.7,25.9,30.04,West,270,2.3,4.5,82,0.00,CLR,SKC,0.00,WeatherDisplay:10.37,2013-02-20 20:36:00,
2013-02-20 21:41:00,30.7,25.9,30.04,NNE,22,0.0,0.0,82,0.00,CLR,SKC,0.00,WeatherDisplay:10.37,2013-02-20 20:41:00,
2013-02-20 21:46:00,30.7,25.9,30.05,NW,315,0.7,0.0,82,0.00,CLR,SKC,0.00,WeatherDisplay:10.37,2013-02-20 20:46:00,
2013-02-20 21:51:00,30.7,25.9,30.06,North,0,2.9,5.8,82,0.00,CLR,SKC,0.00,WeatherDisplay:10.37,2013-02-20 20:51:00,
2013-02-20 21:56:00,30.7,25.9,30.05,NW,315,1.8,2.3,82,0.00,CLR,SKC,0.00,WeatherDisplay:10.37,2013-02-20 20:56:00,
2013-02-20 22:01:00,30.7,25.9,30.06,North,0,2.5,2.5,82,0.00,CLR,SKC,0.00,WeatherDisplay:10.37,2013-02-20 21:01:00,
2013-02-20 22:06:00,30.7,25.9,30.06,ENE,68,0.7,1.1,82,0.00,CLR,SKC,0.00,WeatherDisplay:10.37,2013-02-20 21:06:00,
2013-02-20 22:11:00,30.4,25.5,30.06,NNW,338,1.6,1.6,82,0.00,CLR,SKC,0.00,WeatherDisplay:10.37,2013-02-20 21:11:00,
2013-02-20 22:16:00,30.2,25.4,30.06,WSW,248,0.0,0.0,82,0.00,CLR,SKC,0.00,WeatherDisplay:10.37,2013-02-20 21:16:00,
2013-02-20 22:21:00,30.0,25.2,30.06,NW,315,0.0,0.0,82,0.00,CLR,SKC,0.00,WeatherDisplay:10.37,2013-02-20 21:21:00,
2013-02-20 22:26:00,29.8,25.0,30.06,WNW,292,1.0,1.1,82,0.00,CLR,SKC,0.00,WeatherDisplay:10.37,2013-02-20 21:26:00,
2013-02-20 22:31:00,29.5,24.7,30.06,WNW,292,0.0,0.0,82,0.00,CLR,SKC,0.00,WeatherDisplay:10.37,2013-02-20 21:31:00,
2013-02-20 22:36:00,29.5,24.7,30.06,WSW,248,0.0,0.0,82,0.00,CLR,SKC,0.00,WeatherDisplay:10.37,2013-02-20 21:36:00,
2013-02-20 22:41:00,28.9,24.4,30.05,NNE,22,0.0,0.0,83,0.00,CLR,SKC,0.00,WeatherDisplay:10.37,2013-02-20 21:41:00,
2013-02-20 22:46:00,28.8,24.2,30.05,NNE,22,0.0,0.0,83,0.00,CLR,SKC,0.00,WeatherDisplay:10.37,2013-02-20 21:46:00,
2013-02-20 22:51:00,28.8,24.5,30.06,West,270,1.0,0.0,84,0.00,CLR,SKC,0.00,WeatherDisplay:10.37,2013-02-20 21:51:00,
2013-02-20 22:56:00,29.5,25.2,30.06,WNW,292,3.4,5.8,84,0.00,CLR,SKC,0.00,WeatherDisplay:10.37,2013-02-20 21:56:00,
2013-02-20 23:01:00,29.8,25.3,30.06,WNW,292,1.8,3.5,83,0.00,CLR,SKC,0.00,WeatherDisplay:10.37,2013-02-20 22:01:00,
2013-02-20 23:06:00,29.5,25.0,30.06,West,270,0.5,1.1,83,0.00,CLR,SKC,0.00,WeatherDisplay:10.37,2013-02-20 22:06:00,
2013-02-20 23:11:00,29.1,24.6,30.06,North,0,0.4,1.1,83,0.00,CLR,SKC,0.00,WeatherDisplay:10.37,2013-02-20 22:11:00,
2013-02-20 23:16:00,28.6,24.1,30.06,NE,45,0.0,0.0,83,0.00,CLR,SKC,0.00,WeatherDisplay:10.37,2013-02-20 22:16:00,
2013-02-20 23:21:00,28.2,23.7,30.06,NW,315,0.0,0.0,83,0.00,CLR,SKC,0.00,WeatherDisplay:10.37,2013-02-20 22:21:00,
2013-02-20 23:26:00,28.0,23.5,30.06,North,0,0.6,1.1,83,0.00,CLR,SKC,0.00,WeatherDisplay:10.37,2013-02-20 22:26:00,
2013-02-20 23:31:00,28.0,23.8,30.06,NNW,338,0.0,0.0,84,0.00,CLR,SKC,0.00,WeatherDisplay:10.37,2013-02-20 22:31:00,
2013-02-20 23:36:00,27.7,23.5,30.06,SW,225,0.0,0.0,84,0.00,CLR,SKC,0.00,WeatherDisplay:10.37,2013-02-20 22:36:00,
2013-02-20 23:41:00,27.7,23.5,30.06,SW,225,0.0,0.0,84,0.00,CLR,SKC,0.00,WeatherDisplay:10.37,2013-02-20 22:41:00,
2013-02-20 23:46:00,27.5,23.3,30.06,WNW,292,0.0,0.0,84,0.00,CLR,SKC,0.00,WeatherDisplay:10.37,2013-02-20 22:46:00,
2013-02-20 23:51:00,27.1,22.9,30.06,WNW,292,0.0,0.0,84,0.00,CLR,SKC,0.00,WeatherDisplay:10.37,2013-02-20 22:51:00,
2013-02-20 23:56:00,27.1,23.2,30.06,WNW,292,0.0,0.0,85,0.00,CLR,SKC,0.00,WeatherDisplay:10.37,2013-02-20 22:56:00,